Terminal Aerodrome Forecast
Issued by NWS Tampa Bay Area, FL

Home | Current Version | Previous Version | Text Only | Print | Product List | Glossary On
Versions: 1 2 3 4 5 6 7 8 9 10 11 12 13 14 15 16 17 18 19 20 21 22 23 24 25 26 27 28 29 30 31
000
FTUS42 KTBW 231457 AAA
TAFTPA
TAF AMD
KTPA 231457Z 2315/2412 19005KT P6SM VCTS FEW012 SCT035CB BKN120
      TEMPO 2315/2316 VRB15G25KT 3SM TSRA BKN025CB
     FM231600 23006KT P6SM VCTS BKN035CB BKN120
     FM232100 24007KT P6SM SCT040 SCT100 BKN250
     FM240100 VRB03KT P6SM SCT020 BKN250=

USA.gov is the U.S. government's official web portal to all federal, state and local government web resources and services.